Quail Valley, California
Current Conditions -  °F | °C
As of 4:15 AM on Saturday 20 Dec 2014 (Local Time) from KF70 Reporting Station
Clear Clear  
Wind Chill: 43°   Ceiling: Unl
Heat Index: 43°   Visibility: 5mi
Dew Point: 41°   Wind: 0mph
Humidity: 93%   Direction: NA
Pressure: 30.14"   Gusts: NA
Location:  33.6906°N, 117.25°W
Report Text: KF70 201215Z AUTO 00000KT 5SM CLR 06/05 A3014 RMK AO1
Loading
Personal Weather Stations






























Interactive Weather Map New forecast layout! Learn more

10-Day Weather Forecast

Advertisements
Track Severe Weather on mobile